Edinboro, Pennsylvania
Current Conditions -  °F | °C
As of 5:51 PM on Wednesday 26 Nov 2014 (Local Time) from KERI Reporting Station
Overcast Overcast  
Wind Chill: 31°   Ceiling: 2800
Heat Index: 35°   Visibility: 10mi
Dew Point: 28°   Wind: 5mph
Humidity: 76%   Direction: 80°E
Pressure: 30.03"   Gusts: NA
Location:  41.88°N, 80.13°W
Report Text: KERI 262251Z 08004KT 10SM OVC028 02/M02 A3003 RMK AO2 SLP177 T00171022
Loading
Personal Weather Stations






























Interactive Weather Map New forecast layout! Learn more

10-Day Weather Forecast

Advertisements
Track Severe Weather on mobile